sensor_id;sensor_type;location;lat;lon;timestamp;pressure;altitude;pressure_sealevel;temperature;humidity
14242;BME280;7205;50.864;12.766;2023-03-13T00:00:20;96955.13;;;8.83;87.73
14242;BME280;7205;50.864;12.766;2023-03-13T00:02:49;96953.31;;;8.84;87.76
14242;BME280;7205;50.864;12.766;2023-03-13T00:05:19;96953.13;;;8.85;87.70
14242;BME280;7205;50.864;12.766;2023-03-13T00:07:46;96946.84;;;8.86;87.05
14242;BME280;7205;50.864;12.766;2023-03-13T00:10:12;96952.75;;;8.88;87.41
14242;BME280;7205;50.864;12.766;2023-03-13T00:12:40;96950.13;;;8.88;86.87
14242;BME280;7205;50.864;12.766;2023-03-13T00:15:10;96942.03;;;8.90;86.50
14242;BME280;7205;50.864;12.766;2023-03-13T00:17:37;96944.69;;;8.90;85.90
14242;BME280;7205;50.864;12.766;2023-03-13T00:20:05;96948.94;;;8.91;86.31
14242;BME280;7205;50.864;12.766;2023-03-13T00:22:33;96942.22;;;8.88;85.89
14242;BME280;7205;50.864;12.766;2023-03-13T00:25:00;96938.94;;;8.86;86.16
14242;BME280;7205;50.864;12.766;2023-03-13T00:27:27;96941.75;;;8.85;85.59
14242;BME280;7205;50.864;12.766;2023-03-13T00:29:55;96941.75;;;8.85;85.60
14242;BME280;7205;50.864;12.766;2023-03-13T00:32:22;96920.25;;;8.81;85.46
14242;BME280;7205;50.864;12.766;2023-03-13T00:34:49;96922.25;;;8.79;85.54
14242;BME280;7205;50.864;12.766;2023-03-13T00:37:16;96921.44;;;8.79;84.82
14242;BME280;7205;50.864;12.766;2023-03-13T00:39:46;96926.72;;;8.79;85.65
14242;BME280;7205;50.864;12.766;2023-03-13T00:42:13;96926.72;;;8.79;85.06
14242;BME280;7205;50.864;12.766;2023-03-13T00:44:40;96918.81;;;8.79;85.13
14242;BME280;7205;50.864;12.766;2023-03-13T00:47:08;96924.09;;;8.79;84.83
14242;BME280;7205;50.864;12.766;2023-03-13T00:49:34;96918.19;;;8.77;85.42
14242;BME280;7205;50.864;12.766;2023-03-13T00:52:01;96925.06;;;8.78;85.60
14242;BME280;7205;50.864;12.766;2023-03-13T00:54:28;96915.53;;;8.77;84.90
14242;BME280;7205;50.864;12.766;2023-03-13T00:56:57;96920.63;;;8.78;85.60
14242;BME280;7205;50.864;12.766;2023-03-13T00:59:24;96912.53;;;8.80;85.48
14242;BME280;7205;50.864;12.766;2023-03-13T01:01:51;96906.25;;;8.81;84.92
14242;BME280;7205;50.864;12.766;2023-03-13T01:04:21;96901.81;;;8.81;84.65
14242;BME280;7205;50.864;12.766;2023-03-13T01:06:49;96902.66;;;8.82;84.94
14242;BME280;7205;50.864;12.766;2023-03-13T01:09:16;96900.66;;;8.84;85.09
14242;BME280;7205;50.864;12.766;2023-03-13T01:11:44;96903.91;;;8.86;85.27
14242;BME280;7205;50.864;12.766;2023-03-13T01:14:14;96907.00;;;8.89;85.11
14242;BME280;7205;50.864;12.766;2023-03-13T01:16:43;96903.38;;;8.91;85.11
14242;BME280;7205;50.864;12.766;2023-03-13T01:19:12;96902.38;;;8.92;84.81
14242;BME280;7205;50.864;12.766;2023-03-13T01:21:41;96897.09;;;8.92;84.92
14242;BME280;7205;50.864;12.766;2023-03-13T01:24:12;96894.47;;;8.92;84.53
14242;BME280;7205;50.864;12.766;2023-03-13T01:26:48;96891.19;;;8.89;84.33
14242;BME280;7205;50.864;12.766;2023-03-13T01:29:15;96896.47;;;8.89;84.37
14242;BME280;7205;50.864;12.766;2023-03-13T01:31:45;96895.66;;;8.89;84.33
14242;BME280;7205;50.864;12.766;2023-03-13T01:34:12;96890.41;;;8.89;84.59
14242;BME280;7205;50.864;12.766;2023-03-13T01:36:38;96897.09;;;8.92;84.29
14242;BME280;7205;50.864;12.766;2023-03-13T01:39:10;96889.03;;;8.93;84.23
14242;BME280;7205;50.864;12.766;2023-03-13T01:41:37;96883.75;;;8.93;84.43
14242;BME280;7205;50.864;12.766;2023-03-13T01:44:05;96886.38;;;8.93;84.52
14242;BME280;7205;50.864;12.766;2023-03-13T01:46:34;96874.88;;;8.94;84.81
14242;BME280;7205;50.864;12.766;2023-03-13T01:49:32;96870.59;;;8.93;84.16
14242;BME280;7205;50.864;12.766;2023-03-13T01:52:20;96863.69;;;8.92;84.53
14242;BME280;7205;50.864;12.766;2023-03-13T01:55:01;96864.06;;;8.89;84.13
14242;BME280;7205;50.864;12.766;2023-03-13T01:57:33;96869.50;;;8.87;84.18
14242;BME280;7205;50.864;12.766;2023-03-13T02:00:05;96867.06;;;8.86;84.14
14242;BME280;7205;50.864;12.766;2023-03-13T02:02:43;96866.25;;;8.85;84.47
14242;BME280;7205;50.864;12.766;2023-03-13T02:05:12;96863.81;;;8.84;84.26
14242;BME280;7205;50.864;12.766;2023-03-13T02:07:42;96865.63;;;8.83;84.29
14242;BME280;7205;50.864;12.766;2023-03-13T02:10:14;96858.53;;;8.84;84.15
14242;BME280;7205;50.864;12.766;2023-03-13T02:12:43;96865.44;;;8.85;84.33
14242;BME280;7205;50.864;12.766;2023-03-13T02:15:13;96861.19;;;8.84;84.27
14242;BME280;7205;50.864;12.766;2023-03-13T02:17:40;96863.63;;;8.85;84.32
14242;BME280;7205;50.864;12.766;2023-03-13T02:20:09;96847.84;;;8.85;84.48
14242;BME280;7205;50.864;12.766;2023-03-13T02:22:43;96854.91;;;8.85;84.42
14242;BME280;7205;50.864;12.766;2023-03-13T02:25:26;96846.81;;;8.86;84.61
14242;BME280;7205;50.864;12.766;2023-03-13T02:27:59;96847.66;;;8.87;84.34
14242;BME280;7205;50.864;12.766;2023-03-13T02:30:29;96837.13;;;8.87;84.30
14242;BME280;7205;50.864;12.766;2023-03-13T02:32:55;96832.50;;;8.89;84.68
14242;BME280;7205;50.864;12.766;2023-03-13T02:35:23;96833.09;;;8.91;84.06
14242;BME280;7205;50.864;12.766;2023-03-13T02:37:53;96835.53;;;8.93;83.90
14242;BME280;7205;50.864;12.766;2023-03-13T02:40:27;96836.38;;;8.93;84.03
14242;BME280;7205;50.864;12.766;2023-03-13T02:42:57;96828.28;;;8.95;83.78
14242;BME280;7205;50.864;12.766;2023-03-13T02:45:27;96823.66;;;8.97;83.47
14242;BME280;7205;50.864;12.766;2023-03-13T02:47:54;96826.94;;;8.99;84.01
14242;BME280;7205;50.864;12.766;2023-03-13T02:50:20;96822.09;;;9.02;84.01
14242;BME280;7205;50.864;12.766;2023-03-13T02:52:52;96816.66;;;9.04;83.42
14242;BME280;7205;50.864;12.766;2023-03-13T02:55:23;96815.09;;;9.09;84.33
14242;BME280;7205;50.864;12.766;2023-03-13T02:57:54;96813.06;;;9.11;83.77
14242;BME280;7205;50.864;12.766;2023-03-13T03:00:21;96804.00;;;9.14;83.65
14242;BME280;7205;50.864;12.766;2023-03-13T03:02:51;96795.72;;;9.17;83.71
14242;BME280;7205;50.864;12.766;2023-03-13T03:05:19;96791.91;;;9.19;84.08
14242;BME280;7205;50.864;12.766;2023-03-13T03:07:47;96792.50;;;9.21;83.58
14242;BME280;7205;50.864;12.766;2023-03-13T03:10:14;96788.91;;;9.22;83.15
14242;BME280;7205;50.864;12.766;2023-03-13T03:12:41;96783.44;;;9.24;83.43
14242;BME280;7205;50.864;12.766;2023-03-13T03:15:11;96780.81;;;9.24;83.09
14242;BME280;7205;50.864;12.766;2023-03-13T03:17:42;96768.47;;;9.24;83.88
14242;BME280;7205;50.864;12.766;2023-03-13T03:20:10;96766.63;;;9.25;82.99
14242;BME280;7205;50.864;12.766;2023-03-13T03:22:40;96774.53;;;9.25;83.09
14242;BME280;7205;50.864;12.766;2023-03-13T03:25:08;96754.47;;;9.24;83.16
14242;BME280;7205;50.864;12.766;2023-03-13T03:27:35;96759.94;;;9.22;82.71
14242;BME280;7205;50.864;12.766;2023-03-13T03:30:06;96749.19;;;9.24;83.48
14242;BME280;7205;50.864;12.766;2023-03-13T03:32:37;96747.56;;;9.23;82.69
14242;BME280;7205;50.864;12.766;2023-03-13T03:35:05;96739.66;;;9.23;83.08
14242;BME280;7205;50.864;12.766;2023-03-13T03:37:32;96737.00;;;9.23;83.21
14242;BME280;7205;50.864;12.766;2023-03-13T03:39:59;96730.75;;;9.24;83.28
14242;BME280;7205;50.864;12.766;2023-03-13T03:42:29;96729.13;;;9.23;83.28
14242;BME280;7205;50.864;12.766;2023-03-13T03:44:56;96716.78;;;9.23;83.21
14242;BME280;7205;50.864;12.766;2023-03-13T03:47:23;96716.78;;;9.23;83.01
14242;BME280;7205;50.864;12.766;2023-03-13T03:49:51;96712.53;;;9.22;83.71
14242;BME280;7205;50.864;12.766;2023-03-13T03:52:18;96706.44;;;9.22;83.07
14242;BME280;7205;50.864;12.766;2023-03-13T03:54:46;96701.78;;;9.24;83.93
14242;BME280;7205;50.864;12.766;2023-03-13T03:57:14;96707.06;;;9.24;83.94
14242;BME280;7205;50.864;12.766;2023-03-13T03:59:43;96709.13;;;9.28;84.43
14242;BME280;7205;50.864;12.766;2023-03-13T04:02:10;96703.66;;;9.30;84.01
14242;BME280;7205;50.864;12.766;2023-03-13T04:04:39;96705.91;;;9.33;84.17
14242;BME280;7205;50.864;12.766;2023-03-13T04:07:24;96688.91;;;9.35;84.30
14242;BME280;7205;50.864;12.766;2023-03-13T04:09:51;96669.25;;;9.38;83.96
14242;BME280;7205;50.864;12.766;2023-03-13T04:12:28;96684.72;;;9.41;83.54
14242;BME280;7205;50.864;12.766;2023-03-13T04:14:55;96678.22;;;9.43;83.47
14242;BME280;7205;50.864;12.766;2023-03-13T04:17:30;96680.47;;;9.46;83.29
14242;BME280;7205;50.864;12.766;2023-03-13T04:19:58;96664.47;;;9.48;83.19
14242;BME280;7205;50.864;12.766;2023-03-13T04:22:26;96661.47;;;9.51;83.86
14242;BME280;7205;50.864;12.766;2023-03-13T04:24:56;96658.66;;;9.52;83.32
14242;BME280;7205;50.864;12.766;2023-03-13T04:27:23;96650.34;;;9.55;83.39
14242;BME280;7205;50.864;12.766;2023-03-13T04:29:54;96639.41;;;9.58;82.62
14242;BME280;7205;50.864;12.766;2023-03-13T04:32:40;96639.22;;;9.60;82.88
14242;BME280;7205;50.864;12.766;2023-03-13T04:35:12;96635.59;;;9.61;82.75
14242;BME280;7205;50.864;12.766;2023-03-13T04:38:02;96628.91;;;9.65;82.66
14242;BME280;7205;50.864;12.766;2023-03-13T04:40:46;96628.72;;;9.66;82.98
14242;BME280;7205;50.864;12.766;2023-03-13T04:43:39;96616.16;;;9.68;82.04
14242;BME280;7205;50.864;12.766;2023-03-13T04:46:25;96608.06;;;9.70;82.59
14242;BME280;7205;50.864;12.766;2023-03-13T04:49:12;96600.78;;;9.72;82.08
14242;BME280;7205;50.864;12.766;2023-03-13T04:52:10;96594.31;;;9.74;82.06
14242;BME280;7205;50.864;12.766;2023-03-13T04:54:57;96596.75;;;9.76;81.46
14242;BME280;7205;50.864;12.766;2023-03-13T04:57:42;96574.44;;;9.78;81.15
14242;BME280;7205;50.864;12.766;2023-03-13T05:00:38;96571.41;;;9.81;81.19
14242;BME280;7205;50.864;12.766;2023-03-13T05:03:14;96564.94;;;9.84;80.95
14242;BME280;7205;50.864;12.766;2023-03-13T05:06:08;96550.53;;;9.86;80.41
14242;BME280;7205;50.864;12.766;2023-03-13T05:08:42;96544.09;;;9.89;80.32
14242;BME280;7205;50.864;12.766;2023-03-13T05:11:19;96532.31;;;9.91;80.14
14242;BME280;7205;50.864;12.766;2023-03-13T05:14:12;96535.56;;;9.93;80.50
14242;BME280;7205;50.864;12.766;2023-03-13T05:16:59;96520.38;;;9.95;80.06
14242;BME280;7205;50.864;12.766;2023-03-13T05:19:26;96517.31;;;9.98;80.12
14242;BME280;7205;50.864;12.766;2023-03-13T05:22:06;96514.28;;;10.01;79.60
14242;BME280;7205;50.864;12.766;2023-03-13T05:24:48;96508.81;;;10.03;79.52
14242;BME280;7205;50.864;12.766;2023-03-13T05:27:36;96510.44;;;10.04;79.08
14242;BME280;7205;50.864;12.766;2023-03-13T05:30:35;96510.25;;;10.05;78.81
14242;BME280;7205;50.864;12.766;2023-03-13T05:33:11;96522.41;;;10.06;79.20
14242;BME280;7205;50.864;12.766;2023-03-13T05:35:58;96508.88;;;10.09;79.24
14242;BME280;7205;50.864;12.766;2023-03-13T05:38:43;96507.66;;;10.12;78.83
14242;BME280;7205;50.864;12.766;2023-03-13T05:41:33;96501.34;;;10.13;79.02
14242;BME280;7205;50.864;12.766;2023-03-13T05:44:16;96507.88;;;10.17;78.40
14242;BME280;7205;50.864;12.766;2023-03-13T05:47:15;96495.09;;;10.21;78.98
14242;BME280;7205;50.864;12.766;2023-03-13T05:49:55;96483.13;;;10.25;79.12
14242;BME280;7205;50.864;12.766;2023-03-13T05:52:33;96471.97;;;10.29;78.79
14242;BME280;7205;50.864;12.766;2023-03-13T05:55:32;96461.84;;;10.33;78.60
14242;BME280;7205;50.864;12.766;2023-03-13T05:58:22;96473.78;;;10.35;78.79
14242;BME280;7205;50.864;12.766;2023-03-13T06:01:16;96467.53;;;10.36;78.57
14242;BME280;7205;50.864;12.766;2023-03-13T06:03:49;96465.28;;;10.40;78.30
14242;BME280;7205;50.864;12.766;2023-03-13T06:06:17;96460.44;;;10.43;78.20
14242;BME280;7205;50.864;12.766;2023-03-13T06:08:50;96453.28;;;10.44;78.34
14242;BME280;7205;50.864;12.766;2023-03-13T06:11:17;96454.72;;;10.46;77.81
14242;BME280;7205;50.864;12.766;2023-03-13T06:24:22;96428.94;;;10.68;78.37
14242;BME280;7205;50.864;12.766;2023-03-13T06:26:49;96440.06;;;10.83;81.35
14242;BME280;7205;50.864;12.766;2023-03-13T06:29:20;96432.53;;;10.93;83.13
14242;BME280;7205;50.864;12.766;2023-03-13T06:31:48;96429.84;;;11.06;83.01
14242;BME280;7205;50.864;12.766;2023-03-13T06:35:02;96419.06;;;11.14;82.91
14242;BME280;7205;50.864;12.766;2023-03-13T06:37:36;96389.38;;;11.12;82.13
14242;BME280;7205;50.864;12.766;2023-03-13T06:40:11;96403.00;;;11.15;81.84
14242;BME280;7205;50.864;12.766;2023-03-13T06:42:47;96383.09;;;11.13;81.11
14242;BME280;7205;50.864;12.766;2023-03-13T06:45:38;96375.19;;;11.13;80.66
14242;BME280;7205;50.864;12.766;2023-03-13T06:48:05;96378.63;;;11.13;80.86
14242;BME280;7205;50.864;12.766;2023-03-13T06:50:59;96368.06;;;11.13;80.71
14242;BME280;7205;50.864;12.766;2023-03-13T06:57:21;96364.78;;;11.18;80.30
14242;BME280;7205;50.864;12.766;2023-03-13T07:03:04;96347.28;;;11.23;79.82
14242;BME280;7205;50.864;12.766;2023-03-13T07:06:37;96319.03;;;11.24;79.08
14242;BME280;7205;50.864;12.766;2023-03-13T07:09:04;96334.66;;;11.25;79.65
14242;BME280;7205;50.864;12.766;2023-03-13T07:12:01;96344.63;;;11.30;79.31
14242;BME280;7205;50.864;12.766;2023-03-13T07:14:39;96342.97;;;11.29;78.86
14242;BME280;7205;50.864;12.766;2023-03-13T07:20:33;96341.34;;;11.34;78.42
14242;BME280;7205;50.864;12.766;2023-03-13T07:23:19;96361.44;;;11.35;78.20
14242;BME280;7205;50.864;12.766;2023-03-13T07:25:52;96331.59;;;11.35;77.95
14242;BME280;7205;50.864;12.766;2023-03-13T07:28:20;96334.63;;;11.38;77.81
14242;BME280;7205;50.864;12.766;2023-03-13T07:30:49;96325.66;;;11.39;78.23
14242;BME280;7205;50.864;12.766;2023-03-13T07:33:16;96322.78;;;11.41;78.28
14242;BME280;7205;50.864;12.766;2023-03-13T07:35:46;96328.47;;;11.45;78.09
14242;BME280;7205;50.864;12.766;2023-03-13T07:38:22;96335.75;;;11.49;78.29
14242;BME280;7205;50.864;12.766;2023-03-13T07:40:50;96342.88;;;11.49;78.21
14242;BME280;7205;50.864;12.766;2023-03-13T07:43:18;96359.53;;;11.49;78.60
14242;BME280;7205;50.864;12.766;2023-03-13T07:46:04;96350.38;;;11.52;79.13
14242;BME280;7205;50.864;12.766;2023-03-13T07:48:53;96329.63;;;11.55;79.51
14242;BME280;7205;50.864;12.766;2023-03-13T07:51:24;96363.94;;;11.62;79.96
14242;BME280;7205;50.864;12.766;2023-03-13T07:54:18;96390.97;;;11.70;79.84
14242;BME280;7205;50.864;12.766;2023-03-13T07:56:53;96390.16;;;11.70;79.50
14242;BME280;7205;50.864;12.766;2023-03-13T07:59:23;96407.03;;;11.75;79.71
14242;BME280;7205;50.864;12.766;2023-03-13T08:01:52;96380.16;;;11.78;79.39
14242;BME280;7205;50.864;12.766;2023-03-13T08:04:18;96406.97;;;11.82;79.50
14242;BME280;7205;50.864;12.766;2023-03-13T08:06:46;96412.88;;;11.84;79.33
14242;BME280;7205;50.864;12.766;2023-03-13T08:09:12;96418.72;;;11.86;79.03
14242;BME280;7205;50.864;12.766;2023-03-13T08:11:44;96414.06;;;11.88;79.21
14242;BME280;7205;50.864;12.766;2023-03-13T08:14:13;96410.19;;;11.90;78.99
14242;BME280;7205;50.864;12.766;2023-03-13T08:16:43;96396.53;;;11.93;78.96
14242;BME280;7205;50.864;12.766;2023-03-13T08:19:16;96385.13;;;11.93;79.34
14242;BME280;7205;50.864;12.766;2023-03-13T08:21:44;96381.03;;;11.97;78.98
14242;BME280;7205;50.864;12.766;2023-03-13T08:24:22;96381.63;;;11.99;79.30
14242;BME280;7205;50.864;12.766;2023-03-13T08:26:56;96374.50;;;11.99;78.98
14242;BME280;7205;50.864;12.766;2023-03-13T08:29:41;96358.41;;;12.01;79.26
14242;BME280;7205;50.864;12.766;2023-03-13T08:32:14;96364.94;;;11.98;79.74
14242;BME280;7205;50.864;12.766;2023-03-13T08:34:44;96353.09;;;12.01;79.53
14242;BME280;7205;50.864;12.766;2023-03-13T08:37:14;96364.72;;;12.00;79.73
14242;BME280;7205;50.864;12.766;2023-03-13T08:39:47;96356.19;;;11.98;79.62
14242;BME280;7205;50.864;12.766;2023-03-13T08:42:17;96363.97;;;11.93;79.98
14242;BME280;7205;50.864;12.766;2023-03-13T08:44:44;96385.13;;;11.93;79.98
14242;BME280;7205;50.864;12.766;2023-03-13T08:47:25;96384.13;;;11.87;80.72
14242;BME280;7205;50.864;12.766;2023-03-13T08:50:15;96371.50;;;11.89;81.41
14242;BME280;7205;50.864;12.766;2023-03-13T08:52:58;96370.28;;;11.92;81.85
14242;BME280;7205;50.864;12.766;2023-03-13T08:55:25;96359.06;;;11.96;81.78
14242;BME280;7205;50.864;12.766;2023-03-13T08:57:55;96366.34;;;12.01;82.12
14242;BME280;7205;50.864;12.766;2023-03-13T09:00:22;96374.66;;;12.04;81.91
14242;BME280;7205;50.864;12.766;2023-03-13T09:02:49;96370.19;;;12.05;81.98
14242;BME280;7205;50.864;12.766;2023-03-13T09:05:17;96377.91;;;12.06;82.18
14242;BME280;7205;50.864;12.766;2023-03-13T09:07:44;96361.00;;;12.07;82.18
14242;BME280;7205;50.864;12.766;2023-03-13T09:10:11;96354.03;;;12.13;82.83
14242;BME280;7205;50.864;12.766;2023-03-13T09:12:38;96365.59;;;12.18;83.09
14242;BME280;7205;50.864;12.766;2023-03-13T09:15:06;96371.88;;;12.24;82.92
14242;BME280;7205;50.864;12.766;2023-03-13T09:17:35;96360.47;;;12.23;82.89
14242;BME280;7205;50.864;12.766;2023-03-13T09:20:03;96351.94;;;12.21;82.57
14242;BME280;7205;50.864;12.766;2023-03-13T09:22:31;96350.88;;;12.22;83.01
14242;BME280;7205;50.864;12.766;2023-03-13T09:25:00;96339.28;;;12.23;83.19
14242;BME280;7205;50.864;12.766;2023-03-13T09:27:27;96343.56;;;12.24;83.72
14242;BME280;7205;50.864;12.766;2023-03-13T09:30:00;96341.66;;;12.31;84.02
14242;BME280;7205;50.864;12.766;2023-03-13T09:32:32;96343.66;;;12.36;84.06
14242;BME280;7205;50.864;12.766;2023-03-13T09:35:02;96330.34;;;12.42;84.43
14242;BME280;7205;50.864;12.766;2023-03-13T09:37:29;96324.34;;;12.53;84.73
14242;BME280;7205;50.864;12.766;2023-03-13T09:39:57;96330.91;;;12.69;84.92
14242;BME280;7205;50.864;12.766;2023-03-13T09:42:31;96335.97;;;12.89;84.45
14242;BME280;7205;50.864;12.766;2023-03-13T09:45:12;96323.00;;;12.99;83.55
14242;BME280;7205;50.864;12.766;2023-03-13T09:48:03;96320.91;;;13.07;82.37
14242;BME280;7205;50.864;12.766;2023-03-13T09:50:34;96317.13;;;13.15;82.15
14242;BME280;7205;50.864;12.766;2023-03-13T09:53:12;96304.00;;;13.20;81.86
14242;BME280;7205;50.864;12.766;2023-03-13T09:55:42;96314.38;;;13.39;82.00
14242;BME280;7205;50.864;12.766;2023-03-13T09:58:13;96293.78;;;13.53;81.17
14242;BME280;7205;50.864;12.766;2023-03-13T10:00:45;96293.72;;;13.71;81.39
14242;BME280;7205;50.864;12.766;2023-03-13T10:03:16;96298.69;;;13.91;80.87
14242;BME280;7205;50.864;12.766;2023-03-13T10:05:49;96286.47;;;14.01;78.55
14242;BME280;7205;50.864;12.766;2023-03-13T10:08:20;96284.63;;;14.02;77.24
14242;BME280;7205;50.864;12.766;2023-03-13T10:10:54;96274.34;;;14.05;77.23
14242;BME280;7205;50.864;12.766;2023-03-13T10:13:30;96300.47;;;14.08;76.78
14242;BME280;7205;50.864;12.766;2023-03-13T10:16:00;96288.78;;;14.09;76.55
14242;BME280;7205;50.864;12.766;2023-03-13T10:18:27;96280.81;;;14.09;75.85
14242;BME280;7205;50.864;12.766;2023-03-13T10:20:59;96290.75;;;14.02;75.84
14242;BME280;7205;50.864;12.766;2023-03-13T10:23:37;96278.75;;;14.00;75.97
14242;BME280;7205;50.864;12.766;2023-03-13T10:26:20;96277.94;;;13.99;76.51
14242;BME280;7205;50.864;12.766;2023-03-13T10:28:52;96307.72;;;14.01;76.70
14242;BME280;7205;50.864;12.766;2023-03-13T10:31:24;96304.72;;;13.98;76.00
14242;BME280;7205;50.864;12.766;2023-03-13T10:34:05;96308.84;;;13.94;76.30
14242;BME280;7205;50.864;12.766;2023-03-13T10:36:39;96303.19;;;13.90;76.21
14242;BME280;7205;50.864;12.766;2023-03-13T10:39:07;96306.66;;;13.91;76.61
14242;BME280;7205;50.864;12.766;2023-03-13T10:41:41;96304.13;;;13.96;76.88
14242;BME280;7205;50.864;12.766;2023-03-13T10:44:15;96289.38;;;14.00;76.79
14242;BME280;7205;50.864;12.766;2023-03-13T10:46:44;96300.34;;;14.03;76.88
14242;BME280;7205;50.864;12.766;2023-03-13T10:49:14;96300.91;;;14.17;77.19
14242;BME280;7205;50.864;12.766;2023-03-13T10:51:52;96295.06;;;14.26;76.53
14242;BME280;7205;50.864;12.766;2023-03-13T10:54:24;96310.88;;;14.33;76.10
14242;BME280;7205;50.864;12.766;2023-03-13T10:57:08;96293.09;;;14.33;75.49
14242;BME280;7205;50.864;12.766;2023-03-13T10:59:42;96313.53;;;14.33;75.29
14242;BME280;7205;50.864;12.766;2023-03-13T11:02:22;96302.34;;;14.31;75.39
14242;BME280;7205;50.864;12.766;2023-03-13T11:04:49;96317.44;;;14.30;75.30
14242;BME280;7205;50.864;12.766;2023-03-13T11:07:24;96312.13;;;14.30;75.15
14242;BME280;7205;50.864;12.766;2023-03-13T11:09:57;96325.28;;;14.25;75.28
14242;BME280;7205;50.864;12.766;2023-03-13T11:12:26;96332.88;;;14.22;75.17
14242;BME280;7205;50.864;12.766;2023-03-13T11:15:00;96331.75;;;14.18;75.40
14242;BME280;7205;50.864;12.766;2023-03-13T11:17:36;96327.56;;;14.10;75.31
14242;BME280;7205;50.864;12.766;2023-03-13T11:20:13;96330.56;;;14.02;75.88
14242;BME280;7205;50.864;12.766;2023-03-13T11:22:52;96332.72;;;13.94;76.08
14242;BME280;7205;50.864;12.766;2023-03-13T11:25:27;96329.16;;;13.88;76.72
14242;BME280;7205;50.864;12.766;2023-03-13T11:28:10;96331.88;;;13.81;76.80
14242;BME280;7205;50.864;12.766;2023-03-13T11:30:48;96329.59;;;13.85;77.63
14242;BME280;7205;50.864;12.766;2023-03-13T11:33:27;96330.06;;;13.82;77.92
14242;BME280;7205;50.864;12.766;2023-03-13T11:36:00;96307.81;;;13.83;78.25
14242;BME280;7205;50.864;12.766;2023-03-13T11:38:32;96325.47;;;13.89;78.76
14242;BME280;7205;50.864;12.766;2023-03-13T11:41:13;96313.50;;;13.98;78.80
14242;BME280;7205;50.864;12.766;2023-03-13T11:44:15;96288.09;;;14.02;78.22
14242;BME280;7205;50.864;12.766;2023-03-13T11:46:53;96280.25;;;14.07;78.35
14242;BME280;7205;50.864;12.766;2023-03-13T11:49:50;96277.13;;;14.22;78.00
14242;BME280;7205;50.864;12.766;2023-03-13T11:52:37;96276.34;;;14.44;78.70
14242;BME280;7205;50.864;12.766;2023-03-13T11:55:45;96271.94;;;14.61;77.54
14242;BME280;7205;50.864;12.766;2023-03-13T12:01:22;96253.19;;;14.79;76.19
14242;BME280;7205;50.864;12.766;2023-03-13T12:03:55;96246.81;;;14.80;75.41
14242;BME280;7205;50.864;12.766;2023-03-13T12:06:30;96253.84;;;14.86;74.83
14242;BME280;7205;50.864;12.766;2023-03-13T12:09:09;96252.56;;;14.89;74.80
14242;BME280;7205;50.864;12.766;2023-03-13T12:11:55;96249.88;;;15.00;75.37
14242;BME280;7205;50.864;12.766;2023-03-13T12:15:00;96251.34;;;15.08;73.65
14242;BME280;7205;50.864;12.766;2023-03-13T12:17:50;96236.31;;;15.14;73.22
14242;BME280;7205;50.864;12.766;2023-03-13T12:21:16;96248.84;;;15.30;72.61
14242;BME280;7205;50.864;12.766;2023-03-13T12:24:49;96235.13;;;15.38;72.04
14242;BME280;7205;50.864;12.766;2023-03-13T12:27:48;96225.19;;;15.45;71.47
14242;BME280;7205;50.864;12.766;2023-03-13T12:31:07;96220.94;;;15.44;70.61
14242;BME280;7205;50.864;12.766;2023-03-13T12:33:47;96215.38;;;15.45;70.59
14242;BME280;7205;50.864;12.766;2023-03-13T12:36:50;96210.28;;;15.44;69.88
14242;BME280;7205;50.864;12.766;2023-03-13T12:40:09;96215.69;;;15.37;70.04
14242;BME280;7205;50.864;12.766;2023-03-13T12:43:14;96200.47;;;15.33;70.20
14242;BME280;7205;50.864;12.766;2023-03-13T12:45:59;96209.50;;;15.32;69.91
14242;BME280;7205;50.864;12.766;2023-03-13T12:48:56;96204.97;;;15.32;70.38
14242;BME280;7205;50.864;12.766;2023-03-13T12:51:41;96199.75;;;15.37;70.59
14242;BME280;7205;50.864;12.766;2023-03-13T12:54:20;96201.97;;;15.40;70.50
14242;BME280;7205;50.864;12.766;2023-03-13T12:57:02;96186.19;;;15.50;70.51
14242;BME280;7205;50.864;12.766;2023-03-13T12:59:37;96189.09;;;15.65;70.33
14242;BME280;7205;50.864;12.766;2023-03-13T13:02:14;96193.59;;;15.81;69.54
14242;BME280;7205;50.864;12.766;2023-03-13T13:04:44;96178.75;;;15.85;68.27
14242;BME280;7205;50.864;12.766;2023-03-13T13:07:21;96178.84;;;15.90;67.73
14242;BME280;7205;50.864;12.766;2023-03-13T13:10:16;96177.91;;;16.01;67.66
14242;BME280;7205;50.864;12.766;2023-03-13T13:12:46;96171.19;;;16.15;67.22
14242;BME280;7205;50.864;12.766;2023-03-13T13:15:19;96194.75;;;16.23;66.15
14242;BME280;7205;50.864;12.766;2023-03-13T13:17:52;96178.00;;;16.28;65.36
14242;BME280;7205;50.864;12.766;2023-03-13T13:20:35;96184.16;;;16.28;65.03
14242;BME280;7205;50.864;12.766;2023-03-13T13:32:29;96179.63;;;16.94;64.56
14242;BME280;7205;50.864;12.766;2023-03-13T13:35:01;96176.56;;;17.07;63.68
14242;BME280;7205;50.864;12.766;2023-03-13T13:37:32;96192.16;;;17.20;63.22
14242;BME280;7205;50.864;12.766;2023-03-13T13:40:17;96173.22;;;17.21;62.06
14242;BME280;7205;50.864;12.766;2023-03-13T13:42:49;96183.63;;;17.18;61.53
14242;BME280;7205;50.864;12.766;2023-03-13T13:45:25;96176.88;;;17.10;61.04
14242;BME280;7205;50.864;12.766;2023-03-13T13:51:22;96168.41;;;16.92;61.48
14242;BME280;7205;50.864;12.766;2023-03-13T13:54:01;96169.72;;;16.89;61.91
14242;BME280;7205;50.864;12.766;2023-03-13T13:56:35;96157.94;;;16.85;61.99
14242;BME280;7205;50.864;12.766;2023-03-13T13:59:12;96145.72;;;16.89;62.32
14242;BME280;7205;50.864;12.766;2023-03-13T14:01:42;96125.75;;;16.92;62.29
14242;BME280;7205;50.864;12.766;2023-03-13T14:04:13;96138.78;;;16.88;61.88
14242;BME280;7205;50.864;12.766;2023-03-13T14:06:45;96135.31;;;16.88;62.23
14242;BME280;7205;50.864;12.766;2023-03-13T14:09:30;96135.53;;;16.86;62.13
14242;BME280;7205;50.864;12.766;2023-03-13T14:11:58;96134.25;;;16.89;62.42
14242;BME280;7205;50.864;12.766;2023-03-13T14:14:25;96128.63;;;16.85;61.96
14242;BME280;7205;50.864;12.766;2023-03-13T14:16:53;96127.56;;;16.86;62.20
14242;BME280;7205;50.864;12.766;2023-03-13T14:19:26;96120.41;;;16.92;62.99
14242;BME280;7205;50.864;12.766;2023-03-13T14:21:59;96128.72;;;16.95;61.98
14242;BME280;7205;50.864;12.766;2023-03-13T14:24:27;96125.53;;;16.98;62.01